sensor_id;sensor_type;location;lat;lon;timestamp;pressure;altitude;pressure_sealevel;temperature;humidity
5814;BME280;2933;52.302;8.134;2023-04-04T00:03:55;101976.88;;;0.76;80.78
5814;BME280;2933;52.302;8.134;2023-04-04T00:08:58;101964.00;;;0.76;81.30
5814;BME280;2933;52.302;8.134;2023-04-04T00:13:59;101965.72;;;0.83;81.51
5814;BME280;2933;52.302;8.134;2023-04-04T00:19:02;101959.69;;;0.70;84.13
5814;BME280;2933;52.302;8.134;2023-04-04T00:24:05;101969.03;;;0.50;85.62
5814;BME280;2933;52.302;8.134;2023-04-04T00:29:07;101960.31;;;0.21;88.11
5814;BME280;2933;52.302;8.134;2023-04-04T00:34:08;101949.91;;;0.01;91.11
5814;BME280;2933;52.302;8.134;2023-04-04T00:39:11;101946.34;;;-0.17;91.89
5814;BME280;2933;52.302;8.134;2023-04-04T00:44:12;101955.88;;;-0.03;91.64
5814;BME280;2933;52.302;8.134;2023-04-04T00:54:20;101955.59;;;-0.39;95.57
5814;BME280;2933;52.302;8.134;2023-04-04T00:59:21;101952.91;;;-0.53;98.00
5814;BME280;2933;52.302;8.134;2023-04-04T01:04:24;101945.09;;;-0.65;99.77
5814;BME280;2933;52.302;8.134;2023-04-04T01:09:27;101947.78;;;-0.51;99.24
5814;BME280;2933;52.302;8.134;2023-04-04T01:14:29;101933.94;;;-0.69;99.32
5814;BME280;2933;52.302;8.134;2023-04-04T01:19:33;101929.59;;;-0.76;99.66
5814;BME280;2933;52.302;8.134;2023-04-04T01:24:39;101933.03;;;-0.77;100.00
5814;BME280;2933;52.302;8.134;2023-04-04T01:29:44;101932.09;;;-0.85;100.00
5814;BME280;2933;52.302;8.134;2023-04-04T01:34:51;101938.88;;;-0.90;100.00
5814;BME280;2933;52.302;8.134;2023-04-04T01:40:02;101934.53;;;-0.98;100.00
5814;BME280;2933;52.302;8.134;2023-04-04T01:45:07;101919.00;;;-1.11;100.00
5814;BME280;2933;52.302;8.134;2023-04-04T01:50:10;101915.50;;;-1.20;100.00
5814;BME280;2933;52.302;8.134;2023-04-04T01:55:11;101915.50;;;-1.18;100.00
5814;BME280;2933;52.302;8.134;2023-04-04T02:00:15;101917.16;;;-1.25;100.00
5814;BME280;2933;52.302;8.134;2023-04-04T02:05:16;101918.03;;;-1.21;100.00
5814;BME280;2933;52.302;8.134;2023-04-04T02:10:18;101914.50;;;-1.34;100.00
5814;BME280;2933;52.302;8.134;2023-04-04T02:15:21;101914.28;;;-1.50;100.00
5814;BME280;2933;52.302;8.134;2023-04-04T02:20:23;101912.63;;;-1.49;100.00
5814;BME280;2933;52.302;8.134;2023-04-04T02:25:25;101908.41;;;-1.42;100.00
5814;BME280;2933;52.302;8.134;2023-04-04T02:30:28;101921.16;;;-1.49;100.00
5814;BME280;2933;52.302;8.134;2023-04-04T02:35:30;101921.88;;;-1.59;100.00
5814;BME280;2933;52.302;8.134;2023-04-04T02:40:32;101920.00;;;-1.71;100.00
5814;BME280;2933;52.302;8.134;2023-04-04T02:45:34;101908.94;;;-1.68;100.00
5814;BME280;2933;52.302;8.134;2023-04-04T02:50:36;101902.06;;;-1.71;100.00
5814;BME280;2933;52.302;8.134;2023-04-04T02:55:38;101886.03;;;-1.57;100.00
5814;BME280;2933;52.302;8.134;2023-04-04T03:00:40;101888.66;;;-1.53;100.00
5814;BME280;2933;52.302;8.134;2023-04-04T03:05:42;101873.22;;;-1.56;100.00
5814;BME280;2933;52.302;8.134;2023-04-04T03:10:44;101873.22;;;-1.54;100.00
5814;BME280;2933;52.302;8.134;2023-04-04T03:15:47;101880.88;;;-1.59;100.00
5814;BME280;2933;52.302;8.134;2023-04-04T03:20:49;101867.94;;;-1.68;100.00
5814;BME280;2933;52.302;8.134;2023-04-04T03:25:51;101865.22;;;-1.81;100.00
5814;BME280;2933;52.302;8.134;2023-04-04T03:30:55;101868.38;;;-2.00;100.00
5814;BME280;2933;52.302;8.134;2023-04-04T03:35:57;101857.28;;;-2.01;100.00
5814;BME280;2933;52.302;8.134;2023-04-04T03:41:02;101859.91;;;-1.96;100.00
5814;BME280;2933;52.302;8.134;2023-04-04T03:46:05;101864.31;;;-1.84;100.00
5814;BME280;2933;52.302;8.134;2023-04-04T03:51:07;101865.44;;;-1.62;100.00
5814;BME280;2933;52.302;8.134;2023-04-04T03:56:08;101850.66;;;-1.86;100.00
5814;BME280;2933;52.302;8.134;2023-04-04T04:01:11;101851.34;;;-1.97;100.00
5814;BME280;2933;52.302;8.134;2023-04-04T04:06:13;101847.63;;;-2.20;100.00
5814;BME280;2933;52.302;8.134;2023-04-04T04:11:15;101850.44;;;-2.02;100.00
5814;BME280;2933;52.302;8.134;2023-04-04T04:16:17;101849.47;;;-2.12;100.00
5814;BME280;2933;52.302;8.134;2023-04-04T04:21:19;101847.03;;;-2.02;100.00
5814;BME280;2933;52.302;8.134;2023-04-04T04:26:20;101847.69;;;-2.17;100.00
5814;BME280;2933;52.302;8.134;2023-04-04T04:31:24;101837.28;;;-2.28;100.00
5814;BME280;2933;52.302;8.134;2023-04-04T04:36:25;101838.28;;;-2.18;100.00
5814;BME280;2933;52.302;8.134;2023-04-04T04:41:27;101835.06;;;-2.05;100.00
5814;BME280;2933;52.302;8.134;2023-04-04T04:46:30;101835.28;;;-2.51;100.00
5814;BME280;2933;52.302;8.134;2023-04-04T04:51:32;101836.00;;;-2.60;100.00
5814;BME280;2933;52.302;8.134;2023-04-04T04:56:33;101839.47;;;-2.56;100.00
5814;BME280;2933;52.302;8.134;2023-04-04T05:01:36;101845.69;;;-2.40;100.00
5814;BME280;2933;52.302;8.134;2023-04-04T05:06:38;101852.56;;;-2.36;100.00
5814;BME280;2933;52.302;8.134;2023-04-04T05:11:39;101857.03;;;-2.19;100.00
5814;BME280;2933;52.302;8.134;2023-04-04T05:16:42;101855.75;;;-2.49;100.00
5814;BME280;2933;52.302;8.134;2023-04-04T05:21:44;101864.16;;;-2.56;100.00
5814;BME280;2933;52.302;8.134;2023-04-04T05:26:45;101869.38;;;-2.50;100.00
5814;BME280;2933;52.302;8.134;2023-04-04T05:31:48;101869.53;;;-2.41;100.00
5814;BME280;2933;52.302;8.134;2023-04-04T05:36:50;101866.09;;;-2.41;100.00
5814;BME280;2933;52.302;8.134;2023-04-04T05:41:52;101873.22;;;-2.23;100.00
5814;BME280;2933;52.302;8.134;2023-04-04T05:46:55;101869.56;;;-1.76;100.00
5814;BME280;2933;52.302;8.134;2023-04-04T05:51:56;101877.78;;;-1.32;100.00
5814;BME280;2933;52.302;8.134;2023-04-04T05:56:58;101877.97;;;-1.11;100.00
5814;BME280;2933;52.302;8.134;2023-04-04T06:02:01;101884.34;;;-0.71;100.00
5814;BME280;2933;52.302;8.134;2023-04-04T06:07:02;101890.56;;;-0.38;100.00
5814;BME280;2933;52.302;8.134;2023-04-04T06:12:04;101893.78;;;-0.65;100.00
5814;BME280;2933;52.302;8.134;2023-04-04T06:17:07;101894.09;;;-0.22;100.00
5814;BME280;2933;52.302;8.134;2023-04-04T06:22:08;101903.66;;;-0.04;98.54
5814;BME280;2933;52.302;8.134;2023-04-04T06:27:10;101902.69;;;-0.15;99.92
5814;BME280;2933;52.302;8.134;2023-04-04T06:32:13;101898.44;;;-0.13;98.17
5814;BME280;2933;52.302;8.134;2023-04-04T06:37:15;101900.19;;;-0.04;94.14
5814;BME280;2933;52.302;8.134;2023-04-04T06:42:16;101907.81;;;-0.15;91.24
5814;BME280;2933;52.302;8.134;2023-04-04T06:47:19;101906.28;;;0.12;92.33
5814;BME280;2933;52.302;8.134;2023-04-04T06:52:21;101909.06;;;0.57;90.93
5814;BME280;2933;52.302;8.134;2023-04-04T06:57:23;101911.69;;;0.74;90.00
5814;BME280;2933;52.302;8.134;2023-04-04T07:02:26;101910.91;;;1.12;87.67
5814;BME280;2933;52.302;8.134;2023-04-04T07:07:28;101909.19;;;1.20;86.31
5814;BME280;2933;52.302;8.134;2023-04-04T07:12:29;101919.50;;;1.47;86.62
5814;BME280;2933;52.302;8.134;2023-04-04T07:17:36;101907.50;;;1.66;85.73
5814;BME280;2933;52.302;8.134;2023-04-04T07:22:37;101916.06;;;1.82;84.98
5814;BME280;2933;52.302;8.134;2023-04-04T07:27:39;101914.28;;;2.02;84.24
5814;BME280;2933;52.302;8.134;2023-04-04T07:32:42;101912.59;;;1.95;81.56
5814;BME280;2933;52.302;8.134;2023-04-04T07:37:44;101920.19;;;2.40;79.82
5814;BME280;2933;52.302;8.134;2023-04-04T07:42:46;101921.91;;;2.49;78.07
5814;BME280;2933;52.302;8.134;2023-04-04T07:47:51;101907.94;;;2.88;79.56
5814;BME280;2933;52.302;8.134;2023-04-04T07:52:53;101907.00;;;2.99;79.37
5814;BME280;2933;52.302;8.134;2023-04-04T07:57:55;101903.44;;;3.15;77.60
5814;BME280;2933;52.302;8.134;2023-04-04T08:02:59;101900.75;;;3.31;79.59
5814;BME280;2933;52.302;8.134;2023-04-04T08:08:00;101898.16;;;3.29;77.15
5814;BME280;2933;52.302;8.134;2023-04-04T08:13:02;101891.34;;;3.22;75.25
5814;BME280;2933;52.302;8.134;2023-04-04T08:18:06;101893.78;;;3.40;73.90
5814;BME280;2933;52.302;8.134;2023-04-04T08:23:07;101900.38;;;3.76;73.28
5814;BME280;2933;52.302;8.134;2023-04-04T08:28:09;101886.31;;;4.03;73.57
5814;BME280;2933;52.302;8.134;2023-04-04T08:33:13;101898.19;;;4.18;69.78
5814;BME280;2933;52.302;8.134;2023-04-04T08:38:14;101882.81;;;4.04;69.43
5814;BME280;2933;52.302;8.134;2023-04-04T08:43:16;101890.56;;;4.07;67.28
5814;BME280;2933;52.302;8.134;2023-04-04T08:48:20;101892.06;;;4.27;64.05
5814;BME280;2933;52.302;8.134;2023-04-04T08:53:27;101890.00;;;4.55;62.50
5814;BME280;2933;52.302;8.134;2023-04-04T08:58:29;101894.09;;;4.68;62.85
5814;BME280;2933;52.302;8.134;2023-04-04T09:03:33;101889.09;;;4.56;59.88
5814;BME280;2933;52.302;8.134;2023-04-04T09:08:36;101899.63;;;5.06;55.06
5814;BME280;2933;52.302;8.134;2023-04-04T09:13:38;101896.94;;;5.12;54.95
5814;BME280;2933;52.302;8.134;2023-04-04T09:18:42;101888.78;;;4.79;56.33
5814;BME280;2933;52.302;8.134;2023-04-04T09:23:44;101879.78;;;5.05;57.04
5814;BME280;2933;52.302;8.134;2023-04-04T09:28:51;101881.09;;;5.31;58.21
5814;BME280;2933;52.302;8.134;2023-04-04T09:33:54;101882.81;;;5.30;55.68
5814;BME280;2933;52.302;8.134;2023-04-04T09:38:58;101883.91;;;5.69;59.08
5814;BME280;2933;52.302;8.134;2023-04-04T09:44:00;101887.28;;;5.74;56.00
5814;BME280;2933;52.302;8.134;2023-04-04T09:49:03;101871.50;;;5.36;54.52
5814;BME280;2933;52.302;8.134;2023-04-04T09:54:05;101870.91;;;5.70;55.02
5814;BME280;2933;52.302;8.134;2023-04-04T09:59:07;101869.47;;;6.02;56.13
5814;BME280;2933;52.302;8.134;2023-04-04T10:04:10;101865.22;;;5.98;52.24
5814;BME280;2933;52.302;8.134;2023-04-04T10:09:12;101866.81;;;6.07;51.07
5814;BME280;2933;52.302;8.134;2023-04-04T10:14:15;101862.94;;;6.26;51.55
5814;BME280;2933;52.302;8.134;2023-04-04T10:19:18;101859.19;;;6.40;50.90
5814;BME280;2933;52.302;8.134;2023-04-04T10:24:20;101855.00;;;6.33;51.47
5814;BME280;2933;52.302;8.134;2023-04-04T10:29:21;101851.38;;;6.01;49.11
5814;BME280;2933;52.302;8.134;2023-04-04T10:34:28;101857.41;;;6.43;49.79
5814;BME280;2933;52.302;8.134;2023-04-04T10:39:35;101852.81;;;6.92;50.21
5814;BME280;2933;52.302;8.134;2023-04-04T10:44:38;101847.44;;;6.62;47.62
5814;BME280;2933;52.302;8.134;2023-04-04T10:49:43;101839.31;;;6.40;48.59
5814;BME280;2933;52.302;8.134;2023-04-04T10:54:45;101837.34;;;6.50;47.93
5814;BME280;2933;52.302;8.134;2023-04-04T10:59:56;101829.28;;;6.99;49.11
5814;BME280;2933;52.302;8.134;2023-04-04T11:05:10;101828.06;;;6.40;49.08
5814;BME280;2933;52.302;8.134;2023-04-04T11:10:13;101826.38;;;6.75;49.42
5814;BME280;2933;52.302;8.134;2023-04-04T11:15:20;101817.06;;;6.68;48.13
5814;BME280;2933;52.302;8.134;2023-04-04T11:20:28;101806.91;;;6.57;49.76
5814;BME280;2933;52.302;8.134;2023-04-04T11:25:39;101806.72;;;7.35;49.22
5814;BME280;2933;52.302;8.134;2023-04-04T11:30:42;101802.41;;;7.01;46.25
5814;BME280;2933;52.302;8.134;2023-04-04T11:35:49;101802.19;;;6.74;47.69
5814;BME280;2933;52.302;8.134;2023-04-04T11:40:54;101803.97;;;7.07;48.42
5814;BME280;2933;52.302;8.134;2023-04-04T11:46:04;101794.41;;;7.42;47.91
5814;BME280;2933;52.302;8.134;2023-04-04T11:51:10;101794.00;;;7.57;46.00
5814;BME280;2933;52.302;8.134;2023-04-04T11:56:14;101788.94;;;7.53;45.43
5814;BME280;2933;52.302;8.134;2023-04-04T12:01:16;101791.78;;;7.75;45.15
5814;BME280;2933;52.302;8.134;2023-04-04T12:06:19;101777.94;;;8.34;43.52
5814;BME280;2933;52.302;8.134;2023-04-04T12:11:23;101781.41;;;8.05;43.20
5814;BME280;2933;52.302;8.134;2023-04-04T12:16:26;101759.00;;;7.99;44.21
5814;BME280;2933;52.302;8.134;2023-04-04T12:21:31;101770.91;;;8.36;47.03
5814;BME280;2933;52.302;8.134;2023-04-04T12:26:33;101760.84;;;7.96;43.09
5814;BME280;2933;52.302;8.134;2023-04-04T12:31:35;101752.19;;;8.53;43.79
5814;BME280;2933;52.302;8.134;2023-04-04T12:36:39;101746.56;;;8.37;42.21
5814;BME280;2933;52.302;8.134;2023-04-04T12:41:46;101758.03;;;8.60;41.84
5814;BME280;2933;52.302;8.134;2023-04-04T12:46:48;101738.38;;;9.03;42.58
5814;BME280;2933;52.302;8.134;2023-04-04T12:51:53;101728.25;;;9.68;43.03
5814;BME280;2933;52.302;8.134;2023-04-04T12:56:55;101722.19;;;8.68;42.17
5814;BME280;2933;52.302;8.134;2023-04-04T13:01:59;101717.78;;;8.42;43.04
5814;BME280;2933;52.302;8.134;2023-04-04T13:07:02;101700.31;;;8.72;44.54
5814;BME280;2933;52.302;8.134;2023-04-04T13:12:05;101693.84;;;9.10;43.20
5814;BME280;2933;52.302;8.134;2023-04-04T13:17:08;101685.97;;;8.61;43.34
5814;BME280;2933;52.302;8.134;2023-04-04T13:22:11;101691.03;;;8.65;44.02
5814;BME280;2933;52.302;8.134;2023-04-04T13:27:12;101677.25;;;8.62;43.24
5814;BME280;2933;52.302;8.134;2023-04-04T13:32:14;101669.75;;;8.78;43.98
5814;BME280;2933;52.302;8.134;2023-04-04T13:37:17;101665.19;;;8.59;43.55
5814;BME280;2933;52.302;8.134;2023-04-04T13:42:19;101664.81;;;8.70;44.11
5814;BME280;2933;52.302;8.134;2023-04-04T13:47:23;101654.81;;;8.31;44.31
5814;BME280;2933;52.302;8.134;2023-04-04T13:52:27;101645.56;;;7.93;45.67
5814;BME280;2933;52.302;8.134;2023-04-04T13:57:29;101639.22;;;8.02;45.45
5814;BME280;2933;52.302;8.134;2023-04-04T14:02:30;101631.47;;;8.01;45.88
5814;BME280;2933;52.302;8.134;2023-04-04T14:07:34;101620.56;;;8.94;47.74
5814;BME280;2933;52.302;8.134;2023-04-04T14:12:37;101621.53;;;8.39;45.35
5814;BME280;2933;52.302;8.134;2023-04-04T14:17:38;101615.19;;;8.48;46.37
5814;BME280;2933;52.302;8.134;2023-04-04T14:22:41;101620.34;;;8.22;45.78
5814;BME280;2933;52.302;8.134;2023-04-04T14:27:43;101611.03;;;8.42;45.76
5814;BME280;2933;52.302;8.134;2023-04-04T14:32:44;101599.75;;;8.68;47.12
5814;BME280;2933;52.302;8.134;2023-04-04T14:37:47;101592.25;;;8.59;47.71
5814;BME280;2933;52.302;8.134;2023-04-04T14:42:49;101584.38;;;8.34;47.96
5814;BME280;2933;52.302;8.134;2023-04-04T14:47:50;101591.06;;;8.16;47.28
5814;BME280;2933;52.302;8.134;2023-04-04T14:52:53;101590.59;;;8.04;48.25
5814;BME280;2933;52.302;8.134;2023-04-04T14:57:55;101577.25;;;8.14;47.95
5814;BME280;2933;52.302;8.134;2023-04-04T15:02:57;101578.28;;;8.08;49.68
5814;BME280;2933;52.302;8.134;2023-04-04T15:08:00;101580.31;;;8.00;46.85
5814;BME280;2933;52.302;8.134;2023-04-04T15:13:01;101575.31;;;7.93;47.62
5814;BME280;2933;52.302;8.134;2023-04-04T15:18:03;101574.31;;;7.71;47.49
5814;BME280;2933;52.302;8.134;2023-04-04T15:23:06;101563.91;;;7.69;47.55
5814;BME280;2933;52.302;8.134;2023-04-04T15:28:07;101560.06;;;7.54;48.49
5814;BME280;2933;52.302;8.134;2023-04-04T15:33:09;101559.28;;;7.52;49.13
5814;BME280;2933;52.302;8.134;2023-04-04T15:38:12;101559.41;;;7.74;49.04
5814;BME280;2933;52.302;8.134;2023-04-04T15:43:13;101554.06;;;7.52;47.61
5814;BME280;2933;52.302;8.134;2023-04-04T15:48:15;101564.94;;;7.65;46.15
5814;BME280;2933;52.302;8.134;2023-04-04T15:53:18;101555.75;;;7.53;47.15
5814;BME280;2933;52.302;8.134;2023-04-04T15:58:19;101555.19;;;7.15;46.91
5814;BME280;2933;52.302;8.134;2023-04-04T16:03:21;101547.59;;;7.07;48.35
5814;BME280;2933;52.302;8.134;2023-04-04T16:08:26;101556.06;;;7.14;46.18
5814;BME280;2933;52.302;8.134;2023-04-04T16:13:27;101552.53;;;7.17;46.17
5814;BME280;2933;52.302;8.134;2023-04-04T16:18:29;101539.59;;;7.14;48.38
5814;BME280;2933;52.302;8.134;2023-04-04T16:23:32;101550.56;;;7.25;46.13
5814;BME280;2933;52.302;8.134;2023-04-04T16:28:33;101543.88;;;7.16;47.41
5814;BME280;2933;52.302;8.134;2023-04-04T16:33:35;101553.59;;;7.09;46.48
5814;BME280;2933;52.302;8.134;2023-04-04T16:38:38;101540.34;;;6.89;47.53
5814;BME280;2933;52.302;8.134;2023-04-04T16:43:39;101544.09;;;7.08;48.68
5814;BME280;2933;52.302;8.134;2023-04-04T16:48:42;101527.59;;;7.09;48.71
5814;BME280;2933;52.302;8.134;2023-04-04T16:53:45;101535.47;;;7.08;48.63
5814;BME280;2933;52.302;8.134;2023-04-04T16:58:46;101528.31;;;7.15;51.07
5814;BME280;2933;52.302;8.134;2023-04-04T17:03:48;101520.34;;;7.21;51.39
5814;BME280;2933;52.302;8.134;2023-04-04T17:08:50;101508.00;;;6.99;49.94
5814;BME280;2933;52.302;8.134;2023-04-04T17:13:52;101511.03;;;7.14;49.32
5814;BME280;2933;52.302;8.134;2023-04-04T17:18:54;101513.09;;;7.02;50.47
5814;BME280;2933;52.302;8.134;2023-04-04T17:23:56;101506.94;;;7.06;54.28
5814;BME280;2933;52.302;8.134;2023-04-04T17:28:58;101501.22;;;6.93;50.39
5814;BME280;2933;52.302;8.134;2023-04-04T17:33:59;101503.81;;;6.95;51.14
5814;BME280;2933;52.302;8.134;2023-04-04T17:39:03;101506.69;;;7.14;61.32
5814;BME280;2933;52.302;8.134;2023-04-04T17:44:04;101515.41;;;7.41;60.15
5814;BME280;2933;52.302;8.134;2023-04-04T17:49:06;101508.34;;;7.45;62.44
5814;BME280;2933;52.302;8.134;2023-04-04T17:54:09;101501.38;;;7.19;54.62
5814;BME280;2933;52.302;8.134;2023-04-04T17:59:10;101502.03;;;6.95;55.95
5814;BME280;2933;52.302;8.134;2023-04-04T18:04:12;101504.91;;;7.16;58.36
5814;BME280;2933;52.302;8.134;2023-04-04T18:09:15;101494.72;;;6.78;56.65
5814;BME280;2933;52.302;8.134;2023-04-04T18:14:17;101502.19;;;6.28;57.97
5814;BME280;2933;52.302;8.134;2023-04-04T18:19:19;101498.88;;;6.54;68.30
5814;BME280;2933;52.302;8.134;2023-04-04T18:24:22;101484.53;;;6.41;60.64
5814;BME280;2933;52.302;8.134;2023-04-04T18:29:25;101495.53;;;6.18;66.83
5814;BME280;2933;52.302;8.134;2023-04-04T18:34:26;101485.78;;;6.59;73.26
5814;BME280;2933;52.302;8.134;2023-04-04T18:39:29;101494.84;;;6.75;67.60
5814;BME280;2933;52.302;8.134;2023-04-04T18:44:31;101494.19;;;6.67;68.62
5814;BME280;2933;52.302;8.134;2023-04-04T18:49:33;101488.56;;;6.83;70.60
5814;BME280;2933;52.302;8.134;2023-04-04T18:54:36;101484.84;;;6.91;76.76
5814;BME280;2933;52.302;8.134;2023-04-04T18:59:38;101496.91;;;6.94;72.25
5814;BME280;2933;52.302;8.134;2023-04-04T19:04:40;101493.00;;;6.79;70.00
5814;BME280;2933;52.302;8.134;2023-04-04T19:09:43;101497.31;;;6.78;72.75
5814;BME280;2933;52.302;8.134;2023-04-04T19:14:45;101498.97;;;6.83;77.20
5814;BME280;2933;52.302;8.134;2023-04-04T19:19:46;101494.13;;;6.69;72.91
5814;BME280;2933;52.302;8.134;2023-04-04T19:24:49;101504.53;;;6.69;74.50
5814;BME280;2933;52.302;8.134;2023-04-04T19:29:52;101490.94;;;6.60;76.13
5814;BME280;2933;52.302;8.134;2023-04-04T19:34:53;101499.44;;;6.34;73.20
5814;BME280;2933;52.302;8.134;2023-04-04T19:39:56;101509.88;;;6.31;75.29
5814;BME280;2933;52.302;8.134;2023-04-04T19:44:58;101503.25;;;6.21;78.61
5814;BME280;2933;52.302;8.134;2023-04-04T19:49:59;101503.56;;;6.08;76.47
5814;BME280;2933;52.302;8.134;2023-04-04T19:55:07;101502.97;;;5.61;76.23
5814;BME280;2933;52.302;8.134;2023-04-04T20:00:11;101502.16;;;5.20;79.37
5814;BME280;2933;52.302;8.134;2023-04-04T20:10:57;101497.91;;;4.76;82.62
5814;BME280;2933;52.302;8.134;2023-04-04T20:16:01;101499.81;;;4.68;84.20
5814;BME280;2933;52.302;8.134;2023-04-04T20:21:06;101501.06;;;4.47;87.62
5814;BME280;2933;52.302;8.134;2023-04-04T20:26:10;101497.56;;;4.49;85.82
5814;BME280;2933;52.302;8.134;2023-04-04T20:31:15;101496.06;;;4.37;87.32
5814;BME280;2933;52.302;8.134;2023-04-04T20:36:30;101495.19;;;4.40;87.19
5814;BME280;2933;52.302;8.134;2023-04-04T20:41:33;101501.50;;;4.24;87.93
5814;BME280;2933;52.302;8.134;2023-04-04T20:46:34;101497.19;;;4.24;87.99
5814;BME280;2933;52.302;8.134;2023-04-04T20:51:36;101499.97;;;4.13;90.94
5814;BME280;2933;52.302;8.134;2023-04-04T20:56:47;101489.00;;;4.00;92.40
5814;BME280;2933;52.302;8.134;2023-04-04T21:01:52;101490.59;;;4.06;93.51
5814;BME280;2933;52.302;8.134;2023-04-04T21:06:55;101497.69;;;3.95;94.93
5814;BME280;2933;52.302;8.134;2023-04-04T21:11:59;101495.03;;;3.98;95.10
5814;BME280;2933;52.302;8.134;2023-04-04T21:17:01;101497.00;;;3.85;96.16
5814;BME280;2933;52.302;8.134;2023-04-04T21:22:04;101493.03;;;3.64;96.28
5814;BME280;2933;52.302;8.134;2023-04-04T21:27:07;101485.50;;;3.50;96.58
5814;BME280;2933;52.302;8.134;2023-04-04T21:32:18;101478.69;;;3.46;97.74
5814;BME280;2933;52.302;8.134;2023-04-04T21:37:23;101493.53;;;3.30;98.19
5814;BME280;2933;52.302;8.134;2023-04-04T21:42:28;101485.28;;;3.06;98.51
5814;BME280;2933;52.302;8.134;2023-04-04T21:47:30;101482.63;;;3.09;98.68
5814;BME280;2933;52.302;8.134;2023-04-04T21:52:32;101488.75;;;3.02;98.44
5814;BME280;2933;52.302;8.134;2023-04-04T21:57:34;101482.19;;;2.78;98.14
5814;BME280;2933;52.302;8.134;2023-04-04T22:02:36;101470.50;;;2.47;100.00
5814;BME280;2933;52.302;8.134;2023-04-04T22:07:37;101461.19;;;2.32;100.00
5814;BME280;2933;52.302;8.134;2023-04-04T22:12:40;101459.53;;;2.28;100.00
5814;BME280;2933;52.302;8.134;2023-04-04T22:17:45;101464.00;;;2.10;100.00
5814;BME280;2933;52.302;8.134;2023-04-04T22:22:50;101464.97;;;2.02;100.00
5814;BME280;2933;52.302;8.134;2023-04-04T22:27:53;101460.69;;;1.98;100.00
5814;BME280;2933;52.302;8.134;2023-04-04T22:32:54;101460.66;;;2.01;100.00
5814;BME280;2933;52.302;8.134;2023-04-04T22:37:58;101448.75;;;1.90;100.00
5814;BME280;2933;52.302;8.134;2023-04-04T22:43:03;101415.47;;;1.66;100.00
5814;BME280;2933;52.302;8.134;2023-04-04T22:48:05;101448.13;;;1.62;100.00
5814;BME280;2933;52.302;8.134;2023-04-04T22:53:06;101453.28;;;1.62;100.00
5814;BME280;2933;52.302;8.134;2023-04-04T22:58:13;101455.22;;;1.29;100.00
5814;BME280;2933;52.302;8.134;2023-04-04T23:03:14;101449.22;;;1.33;100.00
5814;BME280;2933;52.302;8.134;2023-04-04T23:08:16;101437.28;;;1.21;100.00
5814;BME280;2933;52.302;8.134;2023-04-04T23:13:19;101444.91;;;1.34;100.00
5814;BME280;2933;52.302;8.134;2023-04-04T23:18:20;101433.13;;;1.00;100.00
5814;BME280;2933;52.302;8.134;2023-04-04T23:23:23;101423.78;;;0.80;100.00
5814;BME280;2933;52.302;8.134;2023-04-04T23:28:27;101430.63;;;0.91;100.00
5814;BME280;2933;52.302;8.134;2023-04-04T23:33:29;101422.97;;;0.78;100.00
5814;BME280;2933;52.302;8.134;2023-04-04T23:38:31;101422.13;;;0.66;100.00
5814;BME280;2933;52.302;8.134;2023-04-04T23:43:34;101424.75;;;0.58;100.00
5814;BME280;2933;52.302;8.134;2023-04-04T23:48:35;101417.91;;;0.52;100.00
5814;BME280;2933;52.302;8.134;2023-04-04T23:53:37;101434.25;;;0.37;100.00
5814;BME280;2933;52.302;8.134;2023-04-04T23:58:40;101437.63;;;0.56;100.00
